createdAt,value
2018-06-13T00:01:36.137Z,96037.30
2018-06-13T00:04:03.447Z,96036.80
2018-06-13T00:06:30.727Z,96040.47
2018-06-13T00:08:58.128Z,96035.65
2018-06-13T00:11:25.470Z,96037.30
2018-06-13T00:13:52.839Z,96033.58
2018-06-13T00:16:20.103Z,96024.39
2018-06-13T00:18:47.319Z,96029.77
2018-06-13T00:21:14.644Z,96035.77
2018-06-13T00:23:41.944Z,96043.70
2018-06-13T00:26:09.213Z,96032.86
2018-06-13T00:28:36.580Z,96038.27
2018-06-13T00:31:03.874Z,96036.25
2018-06-13T00:33:31.185Z,96035.44
2018-06-13T00:35:58.514Z,96043.65
2018-06-13T00:38:25.719Z,96046.14
2018-06-13T00:40:53.053Z,96044.33
2018-06-13T00:43:20.333Z,96046.01
2018-06-13T00:45:47.581Z,96050.07
2018-06-13T00:48:14.886Z,96048.14
2018-06-13T00:50:42.184Z,96047.12
2018-06-13T00:53:09.447Z,96046.06
2018-06-13T00:55:48.132Z,96050.92
2018-06-13T00:58:15.399Z,96056.34
2018-06-13T01:00:44.716Z,96055.25
2018-06-13T01:03:12.183Z,96057.11
2018-06-13T01:05:39.524Z,96059.59
2018-06-13T01:08:06.828Z,96056.63
2018-06-13T01:10:34.119Z,96050.27
2018-06-13T01:13:01.424Z,96054.77
2018-06-13T01:15:28.680Z,96053.11
2018-06-13T01:17:56.098Z,96045.73
2018-06-13T01:20:23.376Z,96045.03
2018-06-13T01:22:50.685Z,96045.87
2018-06-13T01:25:18.003Z,96040.75
2018-06-13T01:27:45.272Z,96043.30
2018-06-13T01:30:12.559Z,96045.59
2018-06-13T01:32:39.853Z,96046.14
2018-06-13T01:35:07.116Z,96038.74
2018-06-13T01:37:34.399Z,96040.56
2018-06-13T01:40:01.761Z,96039.80
2018-06-13T01:42:29.035Z,96035.09
2018-06-13T01:44:56.331Z,96035.98
2018-06-13T01:47:23.592Z,96036.77
2018-06-13T01:49:50.907Z,96034.75
2018-06-13T01:52:18.220Z,96031.80
2018-06-13T01:54:45.521Z,96037.80
2018-06-13T01:57:12.911Z,96035.56
2018-06-13T01:59:40.242Z,96035.52
2018-06-13T02:02:07.616Z,96035.31
2018-06-13T02:04:34.927Z,96034.46
2018-06-13T02:07:02.227Z,96038.56
2018-06-13T02:09:29.512Z,96037.09
2018-06-13T02:11:56.731Z,96039.02
2018-06-13T02:14:24.025Z,96045.11
2018-06-13T02:16:51.388Z,96015.53
2018-06-13T02:19:18.641Z,96041.42
2018-06-13T02:21:47.268Z,96037.82
2018-06-13T02:24:14.427Z,96041.33
2018-06-13T02:26:41.797Z,96042.98
2018-06-13T02:29:09.012Z,96035.18
2018-06-13T02:31:36.333Z,96038.88
2018-06-13T02:34:03.687Z,96042.75
2018-06-13T02:36:31.092Z,96049.77
2018-06-13T02:38:58.408Z,96044.34
2018-06-13T02:41:25.674Z,96044.72
2018-06-13T02:43:53.020Z,96020.55
2018-06-13T02:46:20.377Z,96044.98
2018-06-13T02:48:47.800Z,96052.52
2018-06-13T02:51:15.037Z,96052.17
2018-06-13T02:53:42.390Z,96055.60
2018-06-13T02:56:09.687Z,96062.71
2018-06-13T02:58:36.941Z,96058.44
2018-06-13T03:01:04.221Z,96060.89
2018-06-13T03:03:31.452Z,96055.20
2018-06-13T03:05:58.757Z,96063.42
2018-06-13T03:08:26.001Z,96067.05
2018-06-13T03:10:53.336Z,96071.05
2018-06-13T03:13:20.679Z,96071.25
2018-06-13T03:15:47.999Z,96069.36
2018-06-13T03:18:15.198Z,96074.38
2018-06-13T03:20:42.505Z,96066.98
2018-06-13T03:23:09.880Z,96070.33
2018-06-13T03:25:37.144Z,96073.63
2018-06-13T03:28:04.719Z,96071.09
2018-06-13T03:30:32.007Z,96082.17
2018-06-13T03:32:59.223Z,96074.38
2018-06-13T03:35:26.546Z,96084.56
2018-06-13T03:37:53.760Z,96084.11
2018-06-13T03:40:21.044Z,96087.58
2018-06-13T03:42:48.257Z,96095.72
2018-06-13T03:45:15.534Z,96083.83
2018-06-13T03:47:42.846Z,96089.80
2018-06-13T03:50:10.071Z,96081.31
2018-06-13T03:52:37.406Z,96084.02
2018-06-13T03:55:04.662Z,96085.81
2018-06-13T03:57:31.940Z,96081.31
2018-06-13T03:59:59.217Z,96085.94
2018-06-13T04:02:26.554Z,96083.59
2018-06-13T04:04:53.821Z,96085.06
2018-06-13T04:07:21.146Z,96081.61
2018-06-13T04:09:48.485Z,96090.14
2018-06-13T04:12:15.747Z,96087.25
2018-06-13T04:14:44.665Z,96084.91
2018-06-13T04:17:11.937Z,96091.45
2018-06-13T04:19:39.185Z,96103.98
2018-06-13T04:22:06.527Z,96101.20
2018-06-13T04:24:33.726Z,96104.20
2018-06-13T04:27:00.917Z,96102.77
2018-06-13T04:29:28.252Z,96099.70
2018-06-13T04:31:55.514Z,96107.49
2018-06-13T04:34:22.757Z,96102.67
2018-06-13T04:36:50.080Z,96100.61
2018-06-13T04:39:17.355Z,96103.47
2018-06-13T04:41:44.660Z,96101.64
2018-06-13T04:44:11.923Z,96112.63
2018-06-13T04:46:39.213Z,96111.77
2018-06-13T04:49:06.471Z,96112.81
2018-06-13T04:51:33.842Z,96116.70
2018-06-13T04:54:01.165Z,96115.25
2018-06-13T04:56:28.507Z,96117.36
2018-06-13T04:58:55.771Z,96119.19
2018-06-13T05:01:23.030Z,96119.93
2018-06-13T05:03:50.299Z,96125.78
2018-06-13T05:06:17.530Z,96127.38
2018-06-13T05:08:44.818Z,96133.30
2018-06-13T05:11:12.098Z,96133.02
2018-06-13T05:13:39.428Z,96130.57
2018-06-13T05:16:06.619Z,96127.95
2018-06-13T05:18:33.867Z,96130.07
2018-06-13T05:21:01.296Z,96142.26
2018-06-13T05:23:28.593Z,96141.39
2018-06-13T05:25:55.908Z,96146.70
2018-06-13T05:28:23.199Z,96148.29
2018-06-13T05:30:50.490Z,96146.53
2018-06-13T05:33:17.734Z,96147.50
2018-06-13T05:35:45.012Z,96147.45
2018-06-13T05:38:12.382Z,96150.05
2018-06-13T05:40:39.627Z,96151.36
2018-06-13T05:43:06.893Z,96154.39
2018-06-13T05:45:34.157Z,96148.29
2018-06-13T05:48:01.372Z,96155.34
2018-06-13T05:50:28.653Z,96155.68
2018-06-13T05:52:55.964Z,96164.70
2018-06-13T05:55:23.295Z,96161.66
2018-06-13T05:57:50.572Z,96165.77
2018-06-13T06:00:17.839Z,96166.56
2018-06-13T06:02:54.741Z,96166.39
2018-06-13T06:05:22.096Z,96173.28
2018-06-13T06:07:49.335Z,96170.21
2018-06-13T06:10:16.719Z,96179.21
2018-06-13T06:12:43.922Z,96182.11
2018-06-13T06:15:11.209Z,96184.53
2018-06-13T06:17:38.428Z,96188.28
2018-06-13T06:20:06.863Z,96194.77
2018-06-13T06:22:34.383Z,96191.30
2018-06-13T06:25:01.682Z,96195.06
2018-06-13T06:27:28.888Z,96197.22
2018-06-13T06:29:56.210Z,96194.77
2018-06-13T06:32:23.468Z,96190.44
2018-06-13T06:34:50.751Z,96193.53
2018-06-13T06:37:18.040Z,96195.63
2018-06-13T06:39:45.327Z,96200.69
2018-06-13T06:42:12.805Z,96201.38
2018-06-13T06:44:40.050Z,96206.45
2018-06-13T06:47:07.318Z,96205.59
2018-06-13T06:49:34.587Z,96209.45
2018-06-13T06:52:01.839Z,96206.84
2018-06-13T06:54:29.020Z,96205.25
2018-06-13T06:56:56.264Z,96204.41
2018-06-13T06:59:23.596Z,96217.05
2018-06-13T07:01:50.832Z,96217.17
2018-06-13T07:04:18.104Z,96214.32
2018-06-13T07:06:45.448Z,96221.32
2018-06-13T07:09:12.742Z,96223.95
2018-06-13T07:11:40.053Z,96222.29
2018-06-13T07:14:07.305Z,96223.02
2018-06-13T07:16:34.611Z,96120.20
2018-06-13T07:19:01.947Z,96220.92
2018-06-13T07:21:29.167Z,96222.27
2018-06-13T07:23:56.490Z,96227.42
2018-06-13T07:26:23.785Z,96222.52
2018-06-13T07:28:51.092Z,96225.29
2018-06-13T07:31:18.400Z,96227.92
2018-06-13T07:33:45.739Z,96229.94
2018-06-13T07:36:12.942Z,96230.92
2018-06-13T07:38:40.216Z,96225.74
2018-06-13T07:41:07.528Z,96234.52
2018-06-13T07:43:34.816Z,96231.75
2018-06-13T07:46:02.151Z,96233.09
2018-06-13T07:48:29.333Z,96234.87
2018-06-13T07:50:56.843Z,96246.72
2018-06-13T07:53:24.192Z,96244.75
2018-06-13T07:55:51.451Z,96241.34
2018-06-13T07:58:18.728Z,96239.94
2018-06-13T08:00:46.088Z,96242.94
2018-06-13T08:03:13.342Z,96242.44
2018-06-13T08:05:40.577Z,96236.70
2018-06-13T08:08:07.888Z,96236.39
2018-06-13T08:10:41.878Z,95968.80
2018-06-13T08:13:09.305Z,96237.41
2018-06-13T08:15:36.667Z,96233.63
2018-06-13T08:18:04.264Z,96233.34
2018-06-13T08:20:31.621Z,96239.30
2018-06-13T08:22:58.919Z,96240.31
2018-06-13T08:25:26.245Z,96237.14
2018-06-13T08:27:53.516Z,96238.08
2018-06-13T08:30:20.788Z,96236.37
2018-06-13T08:32:48.054Z,96237.77
2018-06-13T08:35:15.690Z,96242.16
2018-06-13T08:37:44.060Z,96246.42
2018-06-13T08:40:14.702Z,96242.48
2018-06-13T08:42:48.242Z,96245.78
2018-06-13T08:45:17.105Z,96243.00
2018-06-13T08:47:45.194Z,96241.94
2018-06-13T08:50:15.451Z,96243.86
2018-06-13T08:52:43.453Z,96249.67
2018-06-13T08:55:11.019Z,96252.37
2018-06-13T08:57:38.820Z,96254.22
2018-06-13T09:00:06.332Z,96265.38
2018-06-13T09:02:34.313Z,96264.00
2018-06-13T09:05:01.547Z,96270.12
2018-06-13T09:07:28.736Z,96271.55
2018-06-13T09:09:56.014Z,96275.81
2018-06-13T09:12:23.238Z,96282.10
2018-06-13T09:14:51.273Z,96281.29
2018-06-13T09:17:18.604Z,96279.08
2018-06-13T09:19:45.838Z,96284.20
2018-06-13T09:22:13.058Z,96283.58
2018-06-13T09:24:40.428Z,96290.28
2018-06-13T09:27:07.734Z,96291.30
2018-06-13T09:29:34.964Z,96291.84
2018-06-13T09:32:02.252Z,96289.56
2018-06-13T09:34:29.482Z,96294.27
2018-06-13T09:36:56.711Z,96291.19
2018-06-13T09:39:23.959Z,96292.19
2018-06-13T09:41:57.096Z,96292.44
2018-06-13T09:44:24.366Z,96291.09
2018-06-13T09:46:51.639Z,96297.54
2018-06-13T09:49:18.984Z,96295.02
2018-06-13T09:51:46.227Z,96293.49
2018-06-13T09:54:13.496Z,96296.29
2018-06-13T09:56:40.782Z,96293.06
2018-06-13T09:59:13.835Z,96288.92
2018-06-13T10:01:48.263Z,96294.47
2018-06-13T10:04:15.589Z,96293.39
2018-06-13T10:06:42.968Z,96303.75
2018-06-13T10:09:10.168Z,96300.33
2018-06-13T10:11:37.516Z,96307.34
2018-06-13T10:14:05.045Z,96309.22
2018-06-13T10:16:32.351Z,96315.89
2018-06-13T10:18:59.580Z,96317.81
2018-06-13T10:21:26.822Z,96320.59
2018-06-13T10:23:55.818Z,96320.69
2018-06-13T10:26:24.791Z,96321.45
2018-06-13T10:28:54.404Z,96323.89
2018-06-13T10:31:23.732Z,96322.16
2018-06-13T10:33:53.002Z,96323.69
2018-06-13T10:36:22.142Z,96326.16
2018-06-13T10:38:51.426Z,96325.52
2018-06-13T10:41:20.314Z,96327.58
2018-06-13T10:43:48.767Z,96328.25
2018-06-13T10:46:15.990Z,96332.75
2018-06-13T10:48:43.199Z,96336.77
2018-06-13T10:51:10.390Z,96326.95
2018-06-13T10:53:37.581Z,96336.91
2018-06-13T10:56:05.007Z,96339.09
2018-06-13T10:58:32.197Z,96337.91
2018-06-13T11:00:59.416Z,96334.44
2018-06-13T11:03:26.616Z,96334.67
2018-06-13T11:05:53.899Z,96335.47
2018-06-13T11:08:21.136Z,96331.61
2018-06-13T11:10:48.618Z,96329.06
2018-06-13T11:13:15.848Z,96336.06
2018-06-13T11:15:43.110Z,96344.08
2018-06-13T11:18:10.323Z,96338.65
2018-06-13T11:20:37.595Z,96340.08
2018-06-13T11:23:04.859Z,96338.04
2018-06-13T11:25:32.215Z,96343.80
2018-06-13T11:27:59.515Z,96345.10
2018-06-13T11:30:26.757Z,96348.38
2018-06-13T11:32:54.085Z,96355.03
2018-06-13T11:35:21.354Z,96352.30
2018-06-13T11:37:48.586Z,96354.15
2018-06-13T11:40:15.852Z,96346.04
2018-06-13T11:42:43.090Z,96349.34
2018-06-13T11:45:10.327Z,96347.69
2018-06-13T11:47:37.545Z,96354.50
2018-06-13T11:50:04.846Z,96353.46
2018-06-13T11:52:32.406Z,96351.58
2018-06-13T11:54:59.682Z,96360.30
2018-06-13T11:57:26.919Z,96358.30
2018-06-13T11:59:54.173Z,96358.78
2018-06-13T12:02:21.367Z,96365.30
2018-06-13T12:04:48.619Z,96361.61
2018-06-13T12:07:15.919Z,96363.22
2018-06-13T12:09:43.506Z,96361.78
2018-06-13T12:12:10.862Z,96362.47
2018-06-13T12:14:38.113Z,96360.42
2018-06-13T12:17:05.307Z,96363.39
2018-06-13T12:19:32.552Z,96367.39
2018-06-13T12:21:59.867Z,96369.50
2018-06-13T12:24:27.322Z,96368.02
2018-06-13T12:26:54.583Z,96371.55
2018-06-13T12:29:21.931Z,96363.68
2018-06-13T12:31:49.276Z,96365.04
2018-06-13T12:34:16.808Z,96365.39
2018-06-13T12:36:44.123Z,96366.28
2018-06-13T12:39:11.680Z,96368.48
2018-06-13T12:41:38.892Z,96374.77
2018-06-13T12:44:06.206Z,96374.66
2018-06-13T12:46:33.660Z,96378.45
2018-06-13T12:49:00.934Z,96374.75
2018-06-13T12:51:28.521Z,96373.00
2018-06-13T12:53:58.712Z,96371.34
2018-06-13T12:56:26.228Z,96380.23
2018-06-13T12:58:53.676Z,96376.09
2018-06-13T13:01:20.911Z,96381.81
2018-06-13T13:03:48.169Z,96376.94
2018-06-13T13:06:15.450Z,96372.55
2018-06-13T13:08:42.726Z,96372.82
2018-06-13T13:11:10.030Z,96371.73
2018-06-13T13:13:37.254Z,96367.97
2018-06-13T13:16:04.771Z,96361.43
2018-06-13T13:18:32.036Z,96367.17
2018-06-13T13:20:59.293Z,96367.14
2018-06-13T13:26:22.380Z,96370.79
2018-06-13T13:28:49.942Z,96373.22
2018-06-13T13:31:17.435Z,96369.89
2018-06-13T13:33:44.656Z,96372.03
2018-06-13T13:36:11.895Z,96364.56
2018-06-13T13:38:39.167Z,96366.42
2018-06-13T13:41:06.411Z,96371.48
2018-06-13T13:43:33.607Z,96365.44
2018-06-13T13:46:01.212Z,96371.78
2018-06-13T13:48:29.440Z,96374.16
2018-06-13T13:50:56.730Z,96378.13
2018-06-13T13:53:23.998Z,96375.95
2018-06-13T13:56:03.869Z,96380.89
2018-06-13T13:58:39.516Z,96379.56
2018-06-13T14:01:07.227Z,96376.59
2018-06-13T14:03:34.459Z,96374.64
2018-06-13T14:06:01.701Z,96379.74
2018-06-13T14:08:39.097Z,96377.78
2018-06-13T14:11:06.559Z,96379.63
2018-06-13T14:16:27.678Z,96392.42
2018-06-13T14:18:55.126Z,96395.02
2018-06-13T14:21:22.445Z,96393.27
2018-06-13T14:23:50.971Z,96400.08
2018-06-13T14:26:18.537Z,96401.06
2018-06-13T14:28:46.013Z,96396.80
2018-06-13T14:31:13.402Z,96405.34
2018-06-13T14:33:40.735Z,96403.94
2018-06-13T14:36:08.180Z,96402.60
2018-06-13T14:38:35.544Z,96405.35
2018-06-13T14:41:03.021Z,96411.80
2018-06-13T14:43:30.316Z,96406.02
2018-06-13T14:46:08.808Z,96412.92
2018-06-13T14:48:36.799Z,96413.19
2018-06-13T14:51:05.117Z,96412.30
2018-06-13T14:53:32.802Z,96408.34
2018-06-13T14:56:05.730Z,96412.72
2018-06-13T14:58:39.131Z,96082.22
2018-06-13T15:01:06.675Z,96414.44
2018-06-13T15:03:33.938Z,96418.59
2018-06-13T15:06:01.171Z,96416.73
2018-06-13T15:08:28.428Z,96413.17
2018-06-13T15:10:55.633Z,96423.55
2018-06-13T15:13:22.923Z,96416.30
2018-06-13T15:15:50.206Z,96406.16
2018-06-13T15:18:17.454Z,96413.38
2018-06-13T15:20:44.714Z,96411.65
2018-06-13T15:23:12.002Z,96416.28
2018-06-13T15:25:41.546Z,96416.19
2018-06-13T15:28:10.463Z,96417.50
2018-06-13T15:30:41.723Z,96422.50
2018-06-13T15:33:11.149Z,96427.70
2018-06-13T15:35:38.388Z,96423.17
2018-06-13T15:38:05.697Z,96430.98
2018-06-13T15:40:32.984Z,96426.45
2018-06-13T15:43:00.413Z,96426.88
2018-06-13T15:45:27.821Z,96429.70
2018-06-13T15:47:55.074Z,96430.77
2018-06-13T15:50:22.298Z,96426.42
2018-06-13T15:52:49.560Z,96428.69
2018-06-13T15:55:16.803Z,96436.19
2018-06-13T15:57:44.055Z,96436.90
2018-06-13T16:00:11.286Z,96432.36
2018-06-13T16:02:38.526Z,96440.81
2018-06-13T16:05:05.796Z,96443.53
2018-06-13T16:07:33.151Z,96447.26
2018-06-13T16:10:00.418Z,96447.70
2018-06-13T16:12:27.770Z,96446.30
2018-06-13T16:14:55.879Z,96456.07
2018-06-13T16:17:23.128Z,96456.02
2018-06-13T16:19:50.370Z,96459.63
2018-06-13T16:22:17.603Z,96449.56
2018-06-13T16:24:44.869Z,96452.28
2018-06-13T16:27:12.107Z,96450.13
2018-06-13T16:29:39.374Z,96453.05
2018-06-13T16:32:06.702Z,96453.39
2018-06-13T16:34:33.934Z,96451.39
2018-06-13T16:37:01.194Z,96451.91
2018-06-13T16:39:28.480Z,96456.53
2018-06-13T16:41:56.610Z,96460.64
2018-06-13T16:44:23.819Z,96460.73
2018-06-13T16:46:51.098Z,96467.78
2018-06-13T16:49:18.348Z,96470.84
2018-06-13T16:51:51.933Z,96475.86
2018-06-13T16:54:31.028Z,96477.38
2018-06-13T16:56:58.262Z,96477.33
2018-06-13T16:59:25.530Z,96486.73
2018-06-13T17:01:52.754Z,96491.73
2018-06-13T17:04:19.973Z,96495.16
2018-06-13T17:06:48.392Z,96496.00
2018-06-13T17:09:15.631Z,96496.97
2018-06-13T17:11:42.854Z,96505.11
2018-06-13T17:14:10.252Z,96506.03
2018-06-13T17:16:37.546Z,96504.37
2018-06-13T17:19:04.830Z,96518.30
2018-06-13T17:21:32.097Z,96521.12
2018-06-13T17:23:59.523Z,96506.88
2018-06-13T17:26:26.809Z,96504.75
2018-06-13T17:28:58.065Z,96509.66
2018-06-13T17:31:25.469Z,96508.91
2018-06-13T17:33:52.690Z,96509.63
2018-06-13T17:36:19.972Z,96515.77
2018-06-13T17:38:47.311Z,96520.16
2018-06-13T17:41:16.464Z,96512.47
2018-06-13T17:43:44.290Z,96511.70
2018-06-13T17:46:11.780Z,96516.86
2018-06-13T17:48:39.540Z,96517.20
2018-06-13T17:51:06.724Z,96520.95
2018-06-13T17:53:34.022Z,96519.14
2018-06-13T17:56:02.023Z,96514.39
2018-06-13T17:58:45.085Z,96513.30
2018-06-13T18:01:12.623Z,96518.33
2018-06-13T18:03:41.262Z,96523.83
2018-06-13T18:06:08.538Z,96531.14
2018-06-13T18:08:35.783Z,96531.37
2018-06-13T18:11:03.053Z,96535.53
2018-06-13T18:13:30.308Z,96533.37
2018-06-13T18:16:04.326Z,96533.87
2018-06-13T18:18:32.190Z,96530.33
2018-06-13T18:20:59.470Z,96537.34
2018-06-13T18:23:27.143Z,96535.52
2018-06-13T18:25:54.405Z,96536.27
2018-06-13T18:28:30.829Z,96529.28
2018-06-13T18:31:09.308Z,96536.70
2018-06-13T18:33:37.570Z,96531.11
2018-06-13T18:36:14.709Z,96538.71
2018-06-13T18:38:51.365Z,96535.00
2018-06-13T18:41:25.016Z,96542.58
2018-06-13T18:43:52.912Z,96536.02
2018-06-13T18:46:20.175Z,96542.66
2018-06-13T18:48:51.998Z,96547.55
2018-06-13T18:51:22.028Z,96548.99
2018-06-13T18:53:51.957Z,96553.75
2018-06-13T18:56:19.297Z,96560.35
2018-06-13T18:58:46.578Z,96564.56
2018-06-13T19:01:14.033Z,96569.73
2018-06-13T19:03:41.396Z,96573.29
2018-06-13T19:06:08.650Z,96576.80
2018-06-13T19:08:36.023Z,96573.59
2018-06-13T19:11:07.177Z,96577.09
2018-06-13T19:13:42.118Z,96582.28
2018-06-13T19:16:25.173Z,96588.61
2018-06-13T19:18:54.162Z,96590.67
2018-06-13T19:21:28.727Z,96588.66
2018-06-13T19:23:56.865Z,96588.43
2018-06-13T19:26:24.402Z,96596.07
2018-06-13T19:29:04.325Z,96597.70
2018-06-13T19:31:41.406Z,96602.25
2018-06-13T19:34:13.922Z,96604.67
2018-06-13T19:36:43.963Z,96608.39
2018-06-13T19:39:14.891Z,96614.94
2018-06-13T19:41:42.150Z,96615.42
2018-06-13T19:44:28.619Z,96623.08
2018-06-13T19:48:00.009Z,96630.66
2018-06-13T19:50:35.917Z,96635.09
2018-06-13T19:53:15.741Z,96632.56
2018-06-13T19:55:48.701Z,96627.59
2018-06-13T19:58:24.245Z,96633.80
2018-06-13T20:00:51.597Z,96634.25
2018-06-13T20:03:24.692Z,96635.58
2018-06-13T20:05:51.925Z,96641.17
2018-06-13T20:08:19.623Z,96641.53
2018-06-13T20:10:47.100Z,96640.34
2018-06-13T20:13:20.316Z,96640.95
2018-06-13T20:15:53.405Z,96640.22
2018-06-13T20:18:27.002Z,96642.38
2018-06-13T20:20:54.456Z,96644.88
2018-06-13T20:23:21.869Z,96644.97
2018-06-13T20:25:54.794Z,96648.08
2018-06-13T20:28:27.864Z,96652.95
2018-06-13T20:31:00.864Z,96652.39
2018-06-13T20:33:28.347Z,96653.81
2018-06-13T20:35:56.557Z,96648.08
2018-06-13T20:38:24.233Z,96647.95
2018-06-13T20:40:55.902Z,96647.84
2018-06-13T20:43:23.733Z,96654.53
2018-06-13T20:45:51.106Z,96650.50
2018-06-13T20:48:18.515Z,96655.13
2018-06-13T20:50:45.987Z,96658.47
2018-06-13T20:53:19.795Z,96659.89
2018-06-13T20:55:47.479Z,96655.83
2018-06-13T20:58:15.026Z,96656.31
2018-06-13T21:00:42.706Z,96633.92
2018-06-13T21:03:10.036Z,96653.22
2018-06-13T21:05:37.350Z,96654.03
2018-06-13T21:08:04.953Z,96656.31
2018-06-13T21:10:32.240Z,96661.70
2018-06-13T21:12:59.669Z,96664.43
2018-06-13T21:15:27.036Z,96661.12
2018-06-13T21:17:54.376Z,96660.95
2018-06-13T21:20:21.687Z,96669.78
2018-06-13T21:22:48.975Z,96667.41
2018-06-13T21:25:17.140Z,96660.38
2018-06-13T21:27:44.431Z,96659.56
2018-06-13T21:33:04.304Z,96662.06
2018-06-13T21:35:31.617Z,96664.30
2018-06-13T21:37:58.954Z,96664.08
2018-06-13T21:40:26.298Z,96660.75
2018-06-13T21:42:53.615Z,96661.34
2018-06-13T21:45:20.987Z,96658.02
2018-06-13T21:47:48.339Z,96655.98
2018-06-13T21:50:15.771Z,96650.86
2018-06-13T21:52:43.096Z,96658.11
2018-06-13T21:55:10.367Z,96650.03
2018-06-13T21:57:37.654Z,96658.00
2018-06-13T22:00:07.391Z,96655.73
2018-06-13T22:02:34.677Z,96655.86
2018-06-13T22:05:01.919Z,96658.83
2018-06-13T22:07:29.199Z,96653.34
2018-06-13T22:09:56.537Z,96647.39
2018-06-13T22:12:23.846Z,96651.08
2018-06-13T22:14:52.679Z,96648.36
2018-06-13T22:17:19.949Z,96649.67
2018-06-13T22:19:47.232Z,96650.13
2018-06-13T22:22:14.541Z,96651.09
2018-06-13T22:24:41.818Z,96647.16
2018-06-13T22:27:09.084Z,96643.83
2018-06-13T22:29:36.377Z,96638.72
2018-06-13T22:32:03.684Z,96645.84
2018-06-13T22:34:30.970Z,96646.33
2018-06-13T22:36:58.318Z,96642.88
2018-06-13T22:39:25.754Z,96644.08
2018-06-13T22:41:53.040Z,96648.47
2018-06-13T22:44:20.329Z,96649.20
2018-06-13T22:46:47.766Z,96650.85
2018-06-13T22:49:14.966Z,96648.02
2018-06-13T22:51:42.178Z,96650.63
2018-06-13T22:54:09.477Z,96654.91
2018-06-13T22:56:36.846Z,96650.28
2018-06-13T22:59:04.152Z,96651.59
2018-06-13T23:01:31.468Z,96653.25
2018-06-13T23:03:58.750Z,96651.70
2018-06-13T23:06:26.003Z,96650.38
2018-06-13T23:08:53.266Z,96652.90
2018-06-13T23:11:20.574Z,96646.45
2018-06-13T23:13:47.911Z,96651.69
2018-06-13T23:16:15.243Z,96650.28
2018-06-13T23:18:42.510Z,96651.23
2018-06-13T23:21:09.735Z,96645.74
2018-06-13T23:23:37.094Z,96641.11
2018-06-13T23:26:04.432Z,96643.36
2018-06-13T23:28:31.682Z,96639.78
2018-06-13T23:30:58.913Z,96642.41
2018-06-13T23:33:26.189Z,96642.05
2018-06-13T23:35:53.458Z,96633.47
2018-06-13T23:38:20.708Z,96631.07
2018-06-13T23:40:47.909Z,96627.52
2018-06-13T23:43:15.204Z,96625.61
2018-06-13T23:45:42.628Z,96622.16
2018-06-13T23:48:09.856Z,96629.41
2018-06-13T23:50:37.153Z,96627.61
2018-06-13T23:53:04.503Z,96638.81
2018-06-13T23:55:31.898Z,96629.30
2018-06-13T23:57:59.222Z,96631.80
